Etusivu
METAR-TAF:

METAR-TAF

Lentoasemat :

Calhoun County Airport

Port Lavaca, Texas, Yhdysvallat

Leveyspiiri: 28-39-14N, Pituuspiiri: 096-40-52W, korkeus merenpinnasta: 9 m

Tämänhetkinen sää

Tämä raportti tehtiin 29 minuuttia sitten, kello 05.55 UTC
Tuuli 3 kn etelästä/kaakosta
Lämpötila 27°C
Kosteus 89%
Ilmanpaine 1015 hPa
Näkyvyys: 16.1 km
selkeää

METAR: KPKV 190555Z AUTO 16003KT 10SM CLR 27/25 A2998 RMK AO2 T02680249 10315 20268 403430255

Aika: 01:24 (06:24 UTC)


TAF: puuttuu

Säähavainnot ja -ennusteet yli 4000 lentoasemalta (METAR- ja TAF-raportit).

Käytössä olevat sääasemat on merkitty karttaan keltaisilla ja punaisilla pisteillä.

Aseta hiiri pisteen päälle nähdäksesi sääaseman nimen.

Klikkaa sitten nähdäksesi säähavainnot ja -ennusteet.

Kartan vaihtaminen: klikkaa mustalla rastilla varustettuja vihreitä pisteitä, niin voit zoomata sisään; viivalla varustettua vihreää pistettä, niin voit zoomata ulos tai vihreitä nuolia, niin pääset viereisille kartoille.


METAR-TAF: